CYZX

CFB Greenwood Airport

Greenwood, Nova Scotia, Canada
TAF CYZX 230530Z 2306/2406 VRB03KT P6SM SKC BECMG 2312/2314 30008KT FM232000 27008KT P6SM SCT250 BECMG 2400/2402 22005KT RMK NXT FCST BY 231200Z
Issued Valid From Valid To
Apr-23 @ 05:30 UTC
(4 hours ago)
Apr-23 @ 06:00 UTC
(4 hours ago)
Apr-24 @ 06:00 UTC
(in 20 hours)
Apr-23 @ 06:00 to Apr-23 @ 12:00
TAF CYZX 230530Z 2306/2406 VRB03KT P6SM SKC
Wind Visibility Clouds
Variable at 3 knots Greater than 6 miles
  • Clear skies
Becoming Apr-23 @ 12:00 to Apr-23 @ 20:00
BECMG 2312/2314 30008KT
Wind Visibility Clouds
300° at 8 knots Greater than 6 miles
  • Clear skies
From Apr-23 @ 20:00 to Apr-24 @ 00:00
FM232000 27008KT P6SM SCT250
Wind Visibility Clouds
270° at 8 knots Greater than 6 miles
  • Scattered at 25,000' AGL
Becoming Apr-24 @ 00:00 to Apr-24 @ 06:00
BECMG 2400/2402 22005KT RMK NXT FCST BY 231200Z
Wind Visibility Clouds
220° at 5 knots Greater than 6 miles
  • Scattered at 25,000' AGL
TAF CYZX 230530Z 2306/2406 VRB03KT P6SM SKC BECMG 2312/2314 30008KT FM232000 27008KT P6SM SCT250 BECMG 2400/2402 22005KT RMK NXT FCST BY 231200Z
Issued Apr-23 @ 05:30 UTC
(4 hours ago)
Valid From Apr-23 @ 06:00 UTC
(4 hours ago)
Valid To Apr-24 @ 06:00 UTC
(in 20 hours)
Apr-23 @ 06:00 - Apr-23 @ 12:00
Wind Visibility
Variable at 3 knots Greater than 6 miles
Clouds
  • Clear skies
Becoming Apr-23 @ 12:00 - Apr-23 @ 20:00
Wind Visibility
300° at 8 knots Greater than 6 miles
Clouds
  • Clear skies
From Apr-23 @ 20:00 - Apr-24 @ 00:00
Wind Visibility
270° at 8 knots Greater than 6 miles
Clouds
  • Scattered at 25,000' AGL
Becoming Apr-24 @ 00:00 - Apr-24 @ 06:00
Wind Visibility
220° at 5 knots Greater than 6 miles
Clouds
  • Scattered at 25,000' AGL